Time;durP1;ratioP1;P1;durP2;ratioP2;P2;SDS_P1;SDS_P2;PMS_P1;PMS_P2;Temp;Humidity;BMP_temperature;BMP_pressure;BME280_temperature;BME280_humidity;BME280_pressure;Samples;Min_cycle;Max_cycle;Signal;HPM_P1;HPM_P2
2021/01/25 00:00:13;;;;;;;16.75;14.85;;;;;;;6.55;88.09;98022.50;1719974;83;21559;-65
2021/01/25 00:02:41;;;;;;;15.10;13.60;;;;;;;6.59;87.87;98024.49;1719879;83;21378;-65
2021/01/25 00:05:11;;;;;;;13.28;11.95;;;;;;;6.63;87.97;98028.12;1719781;82;21123;-64
2021/01/25 00:07:40;;;;;;;13.15;11.85;;;;;;;6.69;87.86;98018.79;1719858;83;21140;-64
2021/01/25 00:10:10;;;;;;;14.18;12.68;;;;;;;6.75;87.35;98018.95;1719880;83;21139;-64
2021/01/25 00:12:38;;;;;;;13.68;12.28;;;;;;;6.72;87.04;98027.69;1719731;83;21188;-65
2021/01/25 00:15:08;;;;;;;17.73;15.35;;;;;;;6.70;86.85;98023.50;1719940;83;21488;-63
2021/01/25 00:17:36;;;;;;;18.92;15.43;;;;;;;6.68;86.74;98031.33;1719849;83;21088;-64
2021/01/25 00:20:07;;;;;;;18.80;15.58;;;;;;;6.70;86.75;98032.55;1719861;83;21094;-65
2021/01/25 00:22:37;;;;;;;21.93;16.48;;;;;;;6.71;86.61;98027.30;1720069;83;21088;-65
2021/01/25 00:25:07;;;;;;;16.65;13.50;;;;;;;6.72;86.40;98035.44;1719892;83;21047;-64
2021/01/25 00:27:35;;;;;;;15.10;13.53;;;;;;;6.72;86.43;98031.56;1719848;83;21346;-64
2021/01/25 00:30:04;;;;;;;15.20;13.60;;;;;;;6.76;86.24;98030.96;1719780;83;22028;-64
2021/01/25 00:32:32;;;;;;;17.00;14.38;;;;;;;6.82;86.02;98026.77;1719945;83;21548;-65
2021/01/25 00:34:59;;;;;;;13.53;12.13;;;;;;;6.84;85.65;98025.78;1719812;83;21151;-64
2021/01/25 00:37:27;;;;;;;13.98;12.53;;;;;;;6.86;85.37;98023.95;1719953;83;21493;-65
2021/01/25 00:39:54;;;;;;;20.08;17.52;;;;;;;6.89;85.27;98019.10;1719871;83;21222;-64
2021/01/25 00:42:22;;;;;;;16.73;14.98;;;;;;;6.86;84.96;98016.20;1719808;83;21075;-64
2021/01/25 00:44:50;;;;;;;13.25;11.93;;;;;;;6.83;84.99;98024.11;1719855;83;21143;-64
2021/01/25 00:47:20;;;;;;;12.60;11.30;;;;;;;6.79;84.97;98025.65;1719812;83;21147;-64
2021/01/25 00:49:48;;;;;;;12.40;11.05;;;;;;;6.75;85.08;98022.38;1719852;83;21175;-64
2021/01/25 00:52:15;;;;;;;11.90;10.65;;;;;;;6.75;85.13;98018.50;1719823;83;21162;-64
2021/01/25 00:54:43;;;;;;;13.00;10.98;;;;;;;6.74;85.06;98014.70;1719728;82;21529;-64
2021/01/25 00:57:11;;;;;;;12.58;11.18;;;;;;;6.72;84.97;98017.80;1719831;83;21151;-64
2021/01/25 00:59:39;;;;;;;13.03;11.60;;;;;;;6.67;84.77;98014.15;1719812;83;21162;-64
2021/01/25 01:02:06;;;;;;;12.88;11.22;;;;;;;6.57;84.97;98012.94;1719814;82;21084;-64
2021/01/25 01:04:34;;;;;;;11.43;10.32;;;;;;;6.54;85.22;98010.50;1719824;83;21336;-64
2021/01/25 01:07:02;;;;;;;12.05;10.90;;;;;;;6.49;85.26;98012.00;1719794;83;21930;-64
2021/01/25 01:09:30;;;;;;;12.95;11.65;;;;;;;6.46;85.36;98011.31;1719765;83;21127;-64
2021/01/25 01:11:57;;;;;;;12.90;11.60;;;;;;;6.44;85.48;98015.71;1719607;83;21198;-64
2021/01/25 01:14:25;;;;;;;13.55;12.03;;;;;;;6.43;85.53;98008.87;1706268;84;21056;-64
2021/01/25 01:16:52;;;;;;;14.13;12.60;;;;;;;6.39;85.34;98009.95;1706247;83;21377;-64
2021/01/25 01:19:21;;;;;;;14.45;11.80;;;;;;;6.34;85.60;98011.45;1706247;84;21164;-64
2021/01/25 01:21:48;;;;;;;12.07;10.85;;;;;;;6.32;85.87;98017.14;1706287;84;21183;-64
2021/01/25 01:24:16;;;;;;;11.63;10.53;;;;;;;6.33;86.08;98011.52;1706265;84;22206;-64
2021/01/25 01:26:44;;;;;;;13.28;11.88;;;;;;;6.34;86.05;98019.66;1706321;84;21069;-64
2021/01/25 01:29:11;;;;;;;13.15;11.65;;;;;;;6.34;86.08;98021.78;1706324;83;22055;-64
2021/01/25 01:31:39;;;;;;;15.75;12.65;;;;;;;6.34;86.21;98023.53;1706237;84;21096;-64
2021/01/25 01:34:07;;;;;;;12.47;11.20;;;;;;;6.35;86.18;98018.30;1706318;83;21069;-64
2021/01/25 01:36:35;;;;;;;12.28;10.98;;;;;;;6.36;86.09;98012.22;1706303;82;21096;-64
2021/01/25 01:39:04;;;;;;;11.33;10.23;;;;;;;6.37;86.01;98011.31;1706305;84;21057;-64
2021/01/25 01:41:39;;;;;;;13.75;10.90;;;;;;;6.32;85.93;98000.36;1706361;83;21377;-64
2021/01/25 01:44:08;;;;;;;12.43;11.12;;;;;;;6.24;86.10;98005.04;1706246;84;21976;-64
2021/01/25 01:46:39;;;;;;;12.60;11.28;;;;;;;6.19;86.42;98000.56;1706327;84;21485;-64
2021/01/25 01:49:06;;;;;;;12.63;11.43;;;;;;;6.16;86.50;98004.13;1706299;84;21060;-64
2021/01/25 01:51:37;;;;;;;11.20;10.05;;;;;;;6.16;86.64;98008.45;1706310;83;21057;-64
2021/01/25 01:54:06;;;;;;;11.90;10.28;;;;;;;6.16;86.67;98000.70;1706139;82;21437;-64
2021/01/25 01:56:34;;;;;;;12.10;10.88;;;;;;;6.14;86.80;98000.78;1706371;84;21229;-64
2021/01/25 01:59:03;;;;;;;12.98;11.68;;;;;;;6.12;86.67;98000.02;1706300;84;21072;-64
2021/01/25 02:01:32;;;;;;;15.23;12.20;;;;;;;6.09;86.71;97983.38;1706380;83;21143;-64
2021/01/25 02:04:02;;;;;;;12.60;11.00;;;;;;;6.06;86.61;97975.77;1706001;83;21552;-63
2021/01/25 02:06:29;;;;;;;11.68;10.43;;;;;;;6.03;86.48;97968.62;1706269;84;21206;-63
2021/01/25 02:08:58;;;;;;;12.13;10.93;;;;;;;5.98;86.49;97977.05;1706162;84;21108;-63
2021/01/25 02:11:27;;;;;;;11.55;10.35;;;;;;;5.93;86.67;97972.09;1706287;84;21088;-63
2021/01/25 02:13:56;;;;;;;13.35;11.68;;;;;;;5.88;86.82;97974.02;1664332;84;21052;-64
2021/01/25 02:16:25;;;;;;;12.20;10.38;;;;;;;5.86;86.88;97973.25;1704162;84;21076;-63
2021/01/25 02:18:53;;;;;;;13.70;11.75;;;;;;;5.84;86.95;97960.41;1706295;84;21438;-64
2021/01/25 02:21:20;;;;;;;12.18;10.48;;;;;;;5.86;86.90;97962.92;1706323;84;21136;-64
2021/01/25 02:24:12;;;;;;;12.80;11.43;;;;;;;5.84;86.86;97966.03;1706403;84;21078;-64
2021/01/25 02:27:11;;;;;;;14.15;11.60;;;;;;;5.80;87.04;97956.75;1706248;84;21607;-64
2021/01/25 02:29:39;;;;;;;15.38;12.88;;;;;;;5.83;87.16;97949.70;1706434;84;21583;-65
2021/01/25 02:32:07;;;;;;;15.32;12.05;;;;;;;5.87;87.18;97955.57;1706404;84;23452;-64
2021/01/25 02:34:35;;;;;;;13.08;10.93;;;;;;;5.87;86.95;97960.27;1706380;84;21077;-64
2021/01/25 02:37:03;;;;;;;12.88;11.00;;;;;;;5.85;87.07;97973.70;1706393;84;21067;-64
2021/01/25 02:39:31;;;;;;;13.03;11.18;;;;;;;5.87;87.23;97972.34;1664345;84;21119;-64
2021/01/25 02:41:59;;;;;;;14.60;12.47;;;;;;;5.88;87.21;97970.14;1706412;84;21152;-63
2021/01/25 02:44:28;;;;;;;14.70;12.53;;;;;;;5.87;87.21;97971.05;1686490;84;21217;-64
2021/01/25 02:46:57;;;;;;;12.23;11.00;;;;;;;5.86;87.20;97971.95;1706353;83;21116;-64
2021/01/25 02:49:25;;;;;;;13.62;10.95;;;;;;;5.87;87.25;97977.50;1686467;84;21089;-64
2021/01/25 02:51:53;;;;;;;12.53;10.72;;;;;;;5.86;86.94;97966.34;1686469;84;21489;-64
2021/01/25 02:54:20;;;;;;;14.28;11.60;;;;;;;5.87;87.10;97970.59;1706377;82;21104;-65
2021/01/25 02:56:48;;;;;;;14.98;13.35;;;;;;;5.90;87.07;97973.53;1706342;82;21635;-65
2021/01/25 02:59:15;;;;;;;15.48;12.07;;;;;;;5.91;86.85;97982.10;1706352;83;21521;-64
2021/01/25 03:01:45;;;;;;;14.15;11.63;;;;;;;5.86;86.85;97975.38;1706385;84;21057;-64
2021/01/25 03:04:14;;;;;;;14.68;11.50;;;;;;;5.85;86.82;97972.41;1706394;84;21075;-64
2021/01/25 03:06:42;;;;;;;14.80;12.43;;;;;;;5.83;86.97;97966.93;1706516;84;21537;-64
2021/01/25 03:09:10;;;;;;;13.65;12.13;;;;;;;5.84;86.99;97968.16;1706332;84;21455;-64
2021/01/25 03:11:39;;;;;;;14.53;12.90;;;;;;;5.82;87.00;97963.52;1706310;84;21525;-65
2021/01/25 03:14:09;;;;;;;15.50;12.33;;;;;;;5.78;87.11;97966.33;1715457;83;21059;-64
2021/01/25 03:16:37;;;;;;;14.10;11.57;;;;;;;5.73;87.17;97958.80;1719946;83;21072;-65
2021/01/25 03:19:05;;;;;;;14.07;11.85;;;;;;;5.71;87.20;97963.64;1719918;83;21064;-65
2021/01/25 03:21:33;;;;;;;13.53;12.13;;;;;;;5.69;87.33;97960.29;1719890;83;21596;-65
2021/01/25 03:24:03;;;;;;;15.85;13.20;;;;;;;5.66;87.42;97952.23;1719939;83;21183;-64
2021/01/25 03:26:31;;;;;;;17.10;13.43;;;;;;;5.66;87.50;97961.27;1719925;83;21151;-64
2021/01/25 03:28:59;;;;;;;16.20;13.18;;;;;;;5.63;87.67;97951.53;1719877;83;21151;-64
2021/01/25 03:31:27;;;;;;;13.88;11.78;;;;;;;5.62;87.66;97948.12;1719903;83;21077;-63
2021/01/25 03:33:55;;;;;;;13.72;11.53;;;;;;;5.61;87.58;97943.86;1719904;83;21374;-64
2021/01/25 03:36:23;;;;;;;13.58;12.05;;;;;;;5.58;87.79;97932.88;1719797;83;21075;-63
2021/01/25 03:38:51;;;;;;;13.15;11.75;;;;;;;5.58;87.76;97930.30;1719931;83;21076;-64
2021/01/25 03:41:18;;;;;;;14.70;12.55;;;;;;;5.54;87.89;97927.02;1719875;83;21150;-64
2021/01/25 03:43:46;;;;;;;17.40;14.18;;;;;;;5.51;88.02;97932.31;1719889;83;21072;-64
2021/01/25 03:46:14;;;;;;;14.60;12.88;;;;;;;5.49;88.07;97940.56;1719892;83;21378;-64
2021/01/25 03:48:41;;;;;;;13.10;11.68;;;;;;;5.48;88.04;97936.31;1719766;83;21990;-64
2021/01/25 03:51:09;;;;;;;13.25;11.68;;;;;;;5.47;88.14;97944.95;1719868;83;21210;-64
2021/01/25 03:53:37;;;;;;;14.75;13.10;;;;;;;5.41;88.13;97944.77;1719852;82;21513;-64
2021/01/25 03:56:05;;;;;;;11.60;10.15;;;;;;;5.39;88.30;97951.77;1719888;83;21060;-64
2021/01/25 03:58:33;;;;;;;14.47;12.20;;;;;;;5.38;88.44;97954.41;1719859;83;23605;-64
2021/01/25 04:01:01;;;;;;;12.93;11.22;;;;;;;5.37;88.61;97956.59;1719816;83;21143;-64
2021/01/25 04:03:29;;;;;;;14.25;12.33;;;;;;;5.38;88.59;97952.67;1719851;83;21126;-64
2021/01/25 04:05:57;;;;;;;13.48;11.95;;;;;;;5.40;88.42;97949.54;1719867;83;21072;-64
2021/01/25 04:08:24;;;;;;;14.70;12.13;;;;;;;5.37;88.21;97940.67;1719837;82;21166;-63
2021/01/25 04:10:52;;;;;;;12.15;10.72;;;;;;;5.35;88.35;97946.80;1719893;83;21152;-63
2021/01/25 04:13:20;;;;;;;13.53;11.03;;;;;;;5.34;88.41;97941.27;1716635;83;21182;-64
2021/01/25 04:15:48;;;;;;;14.83;12.20;;;;;;;5.33;88.34;97943.45;1706285;83;21174;-63
2021/01/25 04:18:16;;;;;;;19.87;14.70;;;;;;;5.30;88.29;97939.72;1706308;84;21231;-64
2021/01/25 04:20:44;;;;;;;17.52;13.83;;;;;;;5.28;88.38;97943.66;1706352;84;21513;-63
2021/01/25 04:23:11;;;;;;;15.45;11.88;;;;;;;5.29;88.37;97941.91;1706328;84;21377;-64
2021/01/25 04:25:40;;;;;;;13.93;12.13;;;;;;;5.28;88.12;97942.81;1706294;84;21131;-64
2021/01/25 04:28:08;;;;;;;14.35;12.80;;;;;;;5.26;88.40;97934.31;1706341;84;21163;-64
2021/01/25 04:30:35;;;;;;;14.38;12.20;;;;;;;5.26;88.47;97935.14;1706303;84;21084;-65
2021/01/25 04:33:05;;;;;;;13.88;11.55;;;;;;;5.28;88.50;97932.05;1706351;84;21092;-64
2021/01/25 04:35:39;;;;;;;14.07;11.90;;;;;;;5.28;88.36;97925.61;1706343;83;21349;-64
2021/01/25 04:38:03;;;;;;;13.28;11.22;;;;;;;5.26;88.29;97915.81;1706020;84;21108;-64
2021/01/25 04:40:31;;;;;;;11.48;9.93;;;;;;;5.25;88.48;97904.28;1706326;83;21140;-64
2021/01/25 04:43:00;;;;;;;14.70;11.35;;;;;;;5.23;88.40;97901.77;1706233;84;21148;-64
2021/01/25 04:45:28;;;;;;;14.15;12.50;;;;;;;5.21;88.56;97907.45;1706367;83;21199;-64
2021/01/25 04:47:55;;;;;;;13.38;10.38;;;;;;;5.22;88.61;97901.84;1706320;84;21208;-64
2021/01/25 04:50:23;;;;;;;12.20;10.82;;;;;;;5.25;88.55;97895.27;1706216;84;21084;-64
2021/01/25 04:52:51;;;;;;;12.33;11.03;;;;;;;5.24;88.36;97891.01;1686221;82;21533;-64
2021/01/25 04:55:19;;;;;;;13.35;11.10;;;;;;;5.21;88.33;97886.83;1706283;84;21156;-64
2021/01/25 04:57:46;;;;;;;13.95;11.60;;;;;;;5.15;88.32;97893.56;1706323;84;21199;-65
2021/01/25 05:00:20;;;;;;;14.23;12.53;;;;;;;5.11;88.52;97897.17;1706315;83;22112;-64
2021/01/25 05:02:48;;;;;;;15.65;11.48;;;;;;;5.08;88.58;97899.44;1705926;84;37775;-64
2021/01/25 05:05:16;;;;;;;15.00;12.95;;;;;;;5.05;88.78;97900.85;1706288;84;21093;-64
2021/01/25 05:07:44;;;;;;;13.48;12.05;;;;;;;5.05;88.72;97893.12;1706300;84;21060;-63
2021/01/25 05:10:13;;;;;;;12.60;11.05;;;;;;;5.06;88.88;97883.65;1706264;84;21054;-65
2021/01/25 05:12:47;;;;;;;13.00;10.88;;;;;;;5.06;88.66;97878.05;1706290;84;21393;-64
2021/01/25 05:15:30;;;;;;;12.50;10.20;;;;;;;5.00;88.52;97884.75;1718392;83;21089;-65
2021/01/25 05:18:11;;;;;;;12.40;10.45;;;;;;;4.94;88.59;97894.52;1719872;83;21076;-64
2021/01/25 05:20:38;;;;;;;12.05;10.35;;;;;;;4.89;88.94;97902.44;1719798;83;21194;-64
2021/01/25 05:23:15;;;;;;;15.10;13.53;;;;;;;4.85;89.15;97896.57;1719822;83;21083;-64
2021/01/25 05:25:43;;;;;;;13.32;11.55;;;;;;;4.84;89.31;97909.06;1719851;83;21365;-65
2021/01/25 05:28:16;;;;;;;12.47;11.18;;;;;;;4.84;89.31;97906.94;1719760;83;21148;-64
2021/01/25 05:30:43;;;;;;;16.15;14.25;;;;;;;4.84;89.21;97906.48;1719949;83;21060;-64
2021/01/25 05:33:11;;;;;;;15.55;13.40;;;;;;;4.78;89.37;97908.06;1719805;83;21150;-65
2021/01/25 05:35:42;;;;;;;12.03;10.80;;;;;;;4.77;89.68;97911.54;1719937;83;21551;-65
2021/01/25 05:38:09;;;;;;;12.85;11.28;;;;;;;4.78;89.56;97915.79;1693898;83;22292;-64
2021/01/25 05:40:39;;;;;;;11.65;10.45;;;;;;;4.76;89.55;97919.33;1719769;83;21068;-66
2021/01/25 05:43:13;;;;;;;13.45;12.05;;;;;;;4.75;89.64;97913.80;1719910;83;21492;-63
2021/01/25 05:45:48;;;;;;;15.68;12.15;;;;;;;4.76;89.71;97911.16;1873623;76;22211;-64
2021/01/25 05:48:16;;;;;;;14.40;12.58;;;;;;;4.69;89.90;97904.58;1841585;78;20932;-64
2021/01/25 05:50:44;;;;;;;13.95;12.10;;;;;;;4.68;90.04;97909.34;1841647;77;21191;-64
2021/01/25 05:53:14;;;;;;;11.55;10.32;;;;;;;4.71;90.01;97914.38;1832483;78;21124;-65
2021/01/25 05:55:43;;;;;;;13.38;10.90;;;;;;;4.74;89.90;97909.09;1808512;78;21529;-64
2021/01/25 05:58:12;;;;;;;16.27;12.25;;;;;;;4.75;89.94;97901.75;1808499;79;21168;-63
2021/01/25 06:00:40;;;;;;;16.60;14.78;;;;;;;4.73;89.88;97897.56;1808430;79;21160;-64
2021/01/25 06:03:09;;;;;;;17.90;13.00;;;;;;;4.70;89.93;97912.70;1808480;79;21414;-63
2021/01/25 06:05:40;;;;;;;13.60;11.83;;;;;;;4.71;90.00;97904.52;1804364;78;21609;-62
2021/01/25 06:08:28;;;;;;;13.90;11.88;;;;;;;4.73;90.10;97897.56;1801842;79;21159;-65
2021/01/25 06:11:21;;;;;;;12.18;10.68;;;;;;;4.69;90.17;97887.84;1808429;78;21073;-62
2021/01/25 06:14:09;;;;;;;14.38;12.05;;;;;;;4.67;90.20;97878.05;1801335;79;21069;-62
2021/01/25 06:16:37;;;;;;;15.13;13.53;;;;;;;4.62;90.33;97867.55;1807984;79;21206;-62
2021/01/25 06:19:08;;;;;;;15.83;13.00;;;;;;;4.59;90.38;97853.55;1807695;79;21645;-63
2021/01/25 06:21:39;;;;;;;16.93;13.88;;;;;;;4.54;90.47;97849.88;1807752;79;21066;-62
2021/01/25 06:24:08;;;;;;;14.93;12.95;;;;;;;4.51;90.74;97846.15;1808895;78;21157;-65
2021/01/25 06:26:36;;;;;;;17.30;15.10;;;;;;;4.49;90.92;97850.52;1805110;78;21211;-66
2021/01/25 06:29:06;;;;;;;15.88;12.47;;;;;;;4.49;90.96;97850.08;1804079;79;22709;-66
2021/01/25 06:31:38;;;;;;;14.90;12.63;;;;;;;4.50;91.10;97854.77;1804303;79;21889;-64
2021/01/25 06:34:09;;;;;;;16.43;14.17;;;;;;;4.50;91.11;97860.76;1804435;79;22217;-61
2021/01/25 06:36:40;;;;;;;21.07;15.35;;;;;;;4.52;91.27;97863.27;1775820;79;21180;-60
2021/01/25 06:39:08;;;;;;;16.67;13.55;;;;;;;4.56;91.11;97869.13;1805309;78;21751;-64
2021/01/25 06:41:40;;;;;;;16.77;13.50;;;;;;;4.60;91.18;97870.20;1804388;78;21626;-65
2021/01/25 06:44:11;;;;;;;15.20;13.38;;;;;;;4.66;91.04;97857.06;1806165;79;21200;-63
2021/01/25 06:46:39;;;;;;;17.25;14.15;;;;;;;4.71;90.87;97847.86;1809583;79;21200;-63
2021/01/25 06:49:09;;;;;;;19.23;14.95;;;;;;;4.69;90.67;97841.48;1809999;78;21200;-64
2021/01/25 06:51:43;;;;;;;20.95;14.45;;;;;;;4.64;90.71;97838.27;1809131;78;21187;-62
2021/01/25 06:54:12;;;;;;;21.27;15.85;;;;;;;4.66;90.89;97851.08;1810404;78;21613;-67
2021/01/25 06:56:47;;;;;;;21.73;15.53;;;;;;;4.70;91.02;97851.34;1809578;78;21628;-64
2021/01/25 06:59:15;;;;;;;20.85;16.77;;;;;;;4.79;90.97;97847.09;1809866;78;21490;-64
2021/01/25 07:01:43;;;;;;;19.00;15.18;;;;;;;4.83;90.56;97844.28;1781776;79;21203;-65
2021/01/25 07:04:13;;;;;;;20.48;16.82;;;;;;;4.89;90.37;97839.77;1733102;79;22233;-64
2021/01/25 07:06:50;;;;;;;17.07;14.78;;;;;;;4.92;89.99;97834.48;1809464;78;21358;-61
2021/01/25 07:09:32;;;;;;;18.25;14.68;;;;;;;4.90;89.80;97825.53;1809777;79;21191;-64
2021/01/25 07:12:04;;;;;;;19.25;14.38;;;;;;;4.90;89.73;97818.26;1809309;78;21208;-63
2021/01/25 07:14:32;;;;;;;22.58;16.82;;;;;;;4.88;89.66;97813.17;1809708;78;21183;-63
2021/01/25 07:17:00;;;;;;;16.80;13.88;;;;;;;4.87;89.59;97811.50;1813223;78;21665;-63
2021/01/25 07:19:29;;;;;;;18.27;14.30;;;;;;;4.86;89.61;97821.42;1810812;78;22753;-64
2021/01/25 07:21:58;;;;;;;20.30;15.48;;;;;;;4.85;89.65;97816.72;1810369;78;21132;-63
2021/01/25 07:24:27;;;;;;;19.37;14.75;;;;;;;4.88;89.67;97821.35;1809863;78;21442;-63
2021/01/25 07:26:58;;;;;;;20.23;15.80;;;;;;;4.90;89.69;97819.55;1809863;78;21168;-65
2021/01/25 07:29:27;;;;;;;21.55;17.05;;;;;;;4.92;89.61;97825.02;1809965;79;21169;-64
2021/01/25 07:31:56;;;;;;;24.30;16.30;;;;;;;4.94;89.53;97807.75;1809692;79;21747;-66
2021/01/25 07:34:26;;;;;;;26.05;17.32;;;;;;;4.93;89.64;97815.09;1809364;79;21160;-64
2021/01/25 07:36:53;;;;;;;19.32;15.72;;;;;;;4.98;89.68;97812.33;1809862;78;21171;-64
2021/01/25 07:39:21;;;;;;;20.23;15.48;;;;;;;5.01;89.58;97802.69;1809960;79;21542;-65
2021/01/25 07:41:49;;;;;;;22.82;18.15;;;;;;;5.03;89.48;97798.75;1809365;79;21224;-63
2021/01/25 07:44:18;;;;;;;20.80;16.00;;;;;;;5.03;89.52;97795.72;1810187;79;22194;-64
2021/01/25 07:46:50;;;;;;;19.75;15.43;;;;;;;5.04;89.65;97792.25;1813096;79;21686;-63
2021/01/25 07:49:28;;;;;;;18.07;13.83;;;;;;;5.06;89.75;97789.60;1812664;78;21136;-64
2021/01/25 07:51:56;;;;;;;17.90;13.22;;;;;;;5.08;89.67;97778.77;1812546;78;21207;-64
2021/01/25 07:54:31;;;;;;;17.42;14.33;;;;;;;5.10;89.79;97777.80;1812656;78;21195;-66
2021/01/25 07:57:01;;;;;;;22.93;16.35;;;;;;;5.11;89.82;97774.31;1811888;79;21342;-66
2021/01/25 07:59:33;;;;;;;20.02;15.80;;;;;;;5.14;89.90;97774.63;1809520;79;21196;-64
2021/01/25 08:02:09;;;;;;;18.98;14.60;;;;;;;5.21;89.91;97768.27;1779504;79;21231;-65
2021/01/25 08:04:40;;;;;;;18.77;14.33;;;;;;;5.28;89.54;97769.66;1794332;79;21095;-64
2021/01/25 08:07:24;;;;;;;18.07;13.60;;;;;;;5.37;89.22;97775.68;1838977;76;20917;-64
2021/01/25 08:09:55;;;;;;;13.68;11.63;;;;;;;5.30;88.87;97767.84;1812178;79;21114;-67
2021/01/25 08:12:23;;;;;;;13.60;11.28;;;;;;;5.25;88.71;97767.22;1815702;77;22146;-62
2021/01/25 08:14:59;;;;;;;14.23;10.82;;;;;;;5.20;88.82;97763.56;1755475;79;22286;-61
2021/01/25 08:17:30;;;;;;;14.25;11.12;;;;;;;5.19;88.81;97763.66;1816499;77;21565;-68
2021/01/25 08:20:13;;;;;;;13.95;10.75;;;;;;;5.16;88.87;97772.37;1819584;77;21243;-64
2021/01/25 08:22:56;;;;;;;12.15;9.90;;;;;;;5.13;89.02;97767.36;1830400;78;21599;-65
2021/01/25 08:25:27;;;;;;;12.28;9.55;;;;;;;5.17;89.08;97761.61;1831408;78;21391;-64
2021/01/25 08:28:10;;;;;;;10.60;9.28;;;;;;;5.20;89.02;97749.84;1829724;78;21182;-65
2021/01/25 08:30:41;;;;;;;9.53;7.78;;;;;;;5.22;89.02;97750.61;1832691;78;21159;-64
2021/01/25 08:33:11;;;;;;;9.00;7.60;;;;;;;5.26;88.90;97736.67;1834823;76;21055;-65
2021/01/25 08:35:55;;;;;;;9.00;8.10;;;;;;;5.32;88.83;97739.42;1834892;78;21031;-63
2021/01/25 08:38:37;;;;;;;8.08;7.28;;;;;;;5.37;88.72;97739.59;1834774;78;21199;-64
2021/01/25 08:41:28;;;;;;;8.33;6.92;;;;;;;5.36;88.42;97738.37;1834549;78;21075;-64
2021/01/25 08:44:11;;;;;;;7.97;6.15;;;;;;;5.32;88.58;97729.95;1833304;78;21151;-64
2021/01/25 08:46:41;;;;;;;8.30;6.92;;;;;;;5.33;88.69;97725.17;1834762;76;21122;-64
2021/01/25 08:49:15;;;;;;;7.87;7.08;;;;;;;5.37;88.80;97716.39;1814107;78;21159;-65
2021/01/25 08:52:07;;;;;;;8.85;6.47;;;;;;;5.38;88.72;97703.88;1836092;78;21366;-63
2021/01/25 08:54:38;;;;;;;10.00;8.43;;;;;;;5.38;88.71;97696.14;1810446;78;21143;-63
2021/01/25 08:57:23;;;;;;;9.85;7.20;;;;;;;5.40;88.81;97697.33;1804361;79;21075;-64
2021/01/25 08:59:50;;;;;;;6.87;6.12;;;;;;;5.45;89.02;97698.78;1804700;79;21614;-65
2021/01/25 09:02:23;;;;;;;6.20;5.20;;;;;;;5.51;88.90;97682.19;1804563;79;21197;-64
2021/01/25 09:04:52;;;;;;;8.15;6.10;;;;;;;5.52;88.83;97682.11;1804852;79;22034;-64
2021/01/25 09:07:24;;;;;;;9.05;6.83;;;;;;;5.54;88.83;97673.84;1805034;78;21559;-64
2021/01/25 09:09:52;;;;;;;5.87;5.05;;;;;;;5.58;88.96;97660.35;1804739;78;21130;-63
2021/01/25 09:12:22;;;;;;;7.45;6.22;;;;;;;5.66;89.03;97658.20;1804372;79;21194;-64
2021/01/25 09:14:50;;;;;;;10.18;7.85;;;;;;;5.73;88.92;97654.86;1804609;78;21170;-66
2021/01/25 09:17:21;;;;;;;9.03;7.00;;;;;;;5.79;88.91;97661.02;1819732;78;21364;-66
2021/01/25 09:19:51;;;;;;;9.63;7.10;;;;;;;5.86;88.75;97661.05;1832332;78;21114;-65
2021/01/25 09:22:19;;;;;;;10.68;8.90;;;;;;;5.87;88.73;97652.41;1832055;78;21150;-67
2021/01/25 09:24:48;;;;;;;10.13;7.83;;;;;;;5.88;88.81;97647.63;1832151;78;21059;-67
2021/01/25 09:27:19;;;;;;;7.37;5.50;;;;;;;5.87;88.90;97654.53;1832291;78;21070;-66
2021/01/25 09:29:49;;;;;;;6.72;5.40;;;;;;;5.88;89.05;97629.14;1832309;78;22134;-66
2021/01/25 09:32:19;;;;;;;11.20;7.37;;;;;;;5.87;89.11;97639.05;1815460;78;21187;-66
2021/01/25 09:34:50;;;;;;;10.60;7.90;;;;;;;5.84;89.26;97646.11;1797119;78;21191;-65
2021/01/25 09:37:22;;;;;;;10.23;7.60;;;;;;;5.84;89.49;97645.66;1798936;79;21080;-64
2021/01/25 09:39:50;;;;;;;8.88;7.00;;;;;;;5.85;89.59;97634.42;1799921;78;21150;-66
2021/01/25 09:42:18;;;;;;;9.43;6.83;;;;;;;5.87;89.73;97633.05;1799615;79;21195;-64
2021/01/25 09:44:48;;;;;;;8.08;6.28;;;;;;;5.87;89.86;97625.31;1798179;79;22387;-63
2021/01/25 09:47:16;;;;;;;8.00;6.12;;;;;;;5.86;90.07;97615.45;1799678;78;21494;-64
2021/01/25 09:49:46;;;;;;;8.55;6.35;;;;;;;5.87;90.18;97611.95;1799640;79;21103;-64
2021/01/25 09:52:14;;;;;;;7.80;6.17;;;;;;;5.87;90.43;97596.48;1799370;79;21105;-64
2021/01/25 09:54:42;;;;;;;8.28;6.28;;;;;;;5.88;90.56;97597.31;1799423;78;21542;-64
2021/01/25 09:57:11;;;;;;;8.63;7.05;;;;;;;5.88;90.79;97593.44;1799442;79;21632;-67
2021/01/25 09:59:41;;;;;;;11.05;6.78;;;;;;;5.91;90.90;97582.16;1799251;78;21200;-65
2021/01/25 10:02:09;;;;;;;6.85;5.80;;;;;;;5.92;91.10;97574.80;1799458;78;21069;-66
2021/01/25 10:04:37;;;;;;;10.95;6.87;;;;;;;5.95;91.16;97574.19;1798982;78;21102;-63
2021/01/25 10:07:05;;;;;;;9.15;7.00;;;;;;;5.98;91.19;97574.48;1799288;79;21372;-61
2021/01/25 10:09:34;;;;;;;8.20;6.72;;;;;;;5.99;91.35;97559.38;1800574;78;21130;-63
2021/01/25 10:12:04;;;;;;;7.62;5.87;;;;;;;5.99;91.47;97552.93;1801337;78;21649;-64
2021/01/25 10:14:32;;;;;;;12.43;8.45;;;;;;;6.00;91.63;97551.98;1783999;79;21181;-62
2021/01/25 10:17:00;;;;;;;8.78;6.78;;;;;;;6.03;91.80;97546.67;1802929;78;21148;-64
2021/01/25 10:19:28;;;;;;;8.70;7.20;;;;;;;6.05;91.96;97547.42;1773920;78;21256;-63
2021/01/25 10:21:57;;;;;;;8.00;6.53;;;;;;;6.06;92.04;97550.38;1767841;81;21407;-64
2021/01/25 10:24:24;;;;;;;11.43;7.00;;;;;;;6.07;92.17;97538.69;1820242;77;21158;-63
2021/01/25 10:26:52;;;;;;;10.68;8.48;;;;;;;6.09;92.23;97523.12;1771140;76;21190;-63
2021/01/25 10:29:21;;;;;;;9.55;7.65;;;;;;;6.07;92.47;97521.91;1768473;81;22383;-63
2021/01/25 10:31:49;;;;;;;11.22;7.78;;;;;;;6.10;92.81;97511.42;1768954;81;22111;-62
2021/01/25 10:34:17;;;;;;;10.50;6.95;;;;;;;6.15;92.93;97501.69;1770474;80;22039;-62
2021/01/25 10:36:45;;;;;;;9.50;7.40;;;;;;;6.21;92.98;97500.50;1770608;81;21091;-61
2021/01/25 10:39:13;;;;;;;11.70;8.70;;;;;;;6.24;93.06;97496.45;1770610;79;21152;-64
2021/01/25 10:41:41;;;;;;;13.93;9.68;;;;;;;6.28;93.38;97494.09;1770661;81;21083;-62
2021/01/25 10:44:09;;;;;;;12.50;9.60;;;;;;;6.30;93.43;97491.42;1770523;81;21298;-63
2021/01/25 10:46:37;;;;;;;15.10;11.00;;;;;;;6.32;93.56;97481.39;1770625;81;21091;-62
2021/01/25 10:49:05;;;;;;;13.08;9.53;;;;;;;6.36;93.69;97464.81;1770583;81;21150;-63
2021/01/25 10:51:34;;;;;;;14.58;11.50;;;;;;;6.37;93.82;97472.10;1770635;81;21159;-63
2021/01/25 10:54:02;;;;;;;13.00;10.10;;;;;;;6.38;93.93;97464.27;1736876;82;21154;-63
2021/01/25 10:56:31;;;;;;;13.78;10.20;;;;;;;6.40;94.16;97460.28;1736901;82;21199;-64
2021/01/25 10:58:58;;;;;;;16.05;12.03;;;;;;;6.41;94.14;97469.23;1736750;81;21114;-63
2021/01/25 11:01:26;;;;;;;16.70;12.78;;;;;;;6.43;94.32;97465.28;1736850;82;21055;-62
2021/01/25 11:03:54;;;;;;;16.57;12.23;;;;;;;6.45;94.45;97460.41;1736798;82;21141;-62
2021/01/25 11:06:23;;;;;;;16.07;11.25;;;;;;;6.50;94.38;97451.11;1730620;81;21087;-62
2021/01/25 11:08:51;;;;;;;19.65;13.78;;;;;;;6.54;94.38;97456.48;1728289;83;21263;-63
2021/01/25 11:11:20;;;;;;;19.35;13.20;;;;;;;6.58;94.40;97445.06;1752563;80;21529;-64
2021/01/25 11:13:49;;;;;;;15.28;12.37;;;;;;;6.64;94.42;97442.09;1764369;81;21077;-62
2021/01/25 11:16:17;;;;;;;16.02;11.38;;;;;;;6.65;94.46;97437.77;1764243;80;21080;-63
2021/01/25 11:18:46;;;;;;;16.52;11.22;;;;;;;6.67;94.51;97434.17;1764316;81;21100;-64
2021/01/25 11:21:16;;;;;;;22.32;14.13;;;;;;;6.73;94.52;97436.88;1700985;82;21234;-65
2021/01/25 11:23:44;;;;;;;23.85;15.55;;;;;;;6.78;94.52;97433.56;1698786;84;21245;-60
2021/01/25 11:26:12;;;;;;;20.02;14.83;;;;;;;6.85;94.45;97426.64;1700357;84;21406;-64
2021/01/25 11:28:40;;;;;;;18.15;13.28;;;;;;;6.87;94.27;97423.51;1700945;84;21241;-61
2021/01/25 11:31:09;;;;;;;16.82;11.68;;;;;;;6.90;94.29;97415.58;1697680;83;21581;-63
2021/01/25 11:33:42;;;;;;;17.32;14.07;;;;;;;6.93;94.22;97411.98;1699813;82;21305;-62
2021/01/25 11:36:14;;;;;;;22.50;15.40;;;;;;;6.97;94.32;97410.89;1698906;84;21181;-62
2021/01/25 11:38:42;;;;;;;23.15;14.35;;;;;;;6.99;94.16;97401.75;1712419;81;21082;-64
2021/01/25 11:41:10;;;;;;;18.67;11.38;;;;;;;7.00;94.06;97392.59;1761257;81;21159;-63